DLH3547 EDDF-EDDP
Flight info
| Callsign | DLH3547 |
|---|---|
| Flight time | N/A |
| Altitude | 23000 |
| Route | SULUS3D SULUS Z12 LASGA/N0438F220 T953 VOCIM/N0431F210 T954 GOXLI GOXLI1V |
| Aircraft | B77L/H-SDE1E2E3FGHIJ2J3J4J5M1RWXY/LB1D1 |
Departure
| Time | 2026-04-17 06:02 |
|---|---|
| Airport | Frankfurt Main Airport (EDDF) |
Arrival
| Time | N/A |
|---|---|
| Airport | Leipzig/Halle Airport (EDDP) |
| Time | Latitude | Longitude | Altitude | Speed | Heading |
|---|---|---|---|---|---|
| 2026-04-17 05:10 | 50.04602 | 8.56789 | 364 ft | 0 kts | 294° |
| 2026-04-17 05:22 | 50.04602 | 8.56791 | 364 ft | 1 kts | 294° |
| 2026-04-17 05:22 | 50.04601 | 8.56794 | 370 ft | 0 kts | 294° |
| 2026-04-17 05:22 | 50.04600 | 8.56798 | 368 ft | 2 kts | 294° |
| 2026-04-17 05:22 | 50.04592 | 8.56824 | 366 ft | 3 kts | 294° |
| 2026-04-17 05:23 | 50.04585 | 8.56850 | 370 ft | 3 kts | 294° |
| 2026-04-17 05:23 | 50.04577 | 8.56877 | 367 ft | 3 kts | 294° |
| 2026-04-17 05:23 | 50.04570 | 8.56904 | 368 ft | 3 kts | 285° |
| 2026-04-17 05:23 | 50.04566 | 8.56935 | 367 ft | 3 kts | 265° |
| 2026-04-17 05:24 | 50.04570 | 8.56964 | 365 ft | 3 kts | 255° |
| 2026-04-17 05:24 | 50.04575 | 8.56992 | 368 ft | 3 kts | 255° |
| 2026-04-17 05:24 | 50.04576 | 8.56998 | 367 ft | 0 kts | 255° |
| 2026-04-17 05:47 | 50.04561 | 8.56954 | 368 ft | 6 kts | 240° |
| 2026-04-17 05:47 | 50.04558 | 8.56944 | 369 ft | 1 kts | 240° |
| 2026-04-17 05:48 | 50.04544 | 8.56914 | 372 ft | 6 kts | 229° |
| 2026-04-17 05:48 | 50.04506 | 8.56880 | 367 ft | 6 kts | 202° |
| 2026-04-17 05:48 | 50.04468 | 8.56843 | 371 ft | 6 kts | 221° |
| 2026-04-17 05:48 | 50.04444 | 8.56784 | 372 ft | 7 kts | 245° |
| 2026-04-17 05:49 | 50.04426 | 8.56718 | 371 ft | 7 kts | 247° |
| 2026-04-17 05:49 | 50.04408 | 8.56651 | 370 ft | 7 kts | 249° |
| 2026-04-17 05:49 | 50.04389 | 8.56566 | 369 ft | 9 kts | 251° |
| 2026-04-17 05:49 | 50.04366 | 8.56466 | 369 ft | 11 kts | 248° |
| 2026-04-17 05:50 | 50.04338 | 8.56356 | 364 ft | 11 kts | 248° |
| 2026-04-17 05:50 | 50.04308 | 8.56229 | 365 ft | 14 kts | 251° |
| 2026-04-17 05:50 | 50.04277 | 8.56094 | 361 ft | 12 kts | 249° |
| 2026-04-17 05:50 | 50.04255 | 8.56003 | 364 ft | 9 kts | 250° |
| 2026-04-17 05:51 | 50.04251 | 8.55985 | 367 ft | 9 kts | 250° |
| 2026-04-17 05:51 | 50.04250 | 8.55979 | 358 ft | 9 kts | 250° |
| 2026-04-17 05:51 | 50.04229 | 8.55891 | 360 ft | 9 kts | 249° |
| 2026-04-17 05:51 | 50.04207 | 8.55800 | 365 ft | 9 kts | 249° |
| 2026-04-17 05:52 | 50.04185 | 8.55710 | 364 ft | 9 kts | 249° |
| 2026-04-17 05:52 | 50.04163 | 8.55619 | 368 ft | 9 kts | 250° |
| 2026-04-17 05:52 | 50.04142 | 8.55527 | 365 ft | 9 kts | 249° |
| 2026-04-17 05:52 | 50.04117 | 8.55428 | 363 ft | 10 kts | 248° |
| 2026-04-17 05:53 | 50.04094 | 8.55330 | 368 ft | 10 kts | 250° |
| 2026-04-17 05:53 | 50.04071 | 8.55230 | 363 ft | 10 kts | 249° |
| 2026-04-17 05:53 | 50.04045 | 8.55125 | 362 ft | 11 kts | 249° |
| 2026-04-17 05:53 | 50.04016 | 8.55004 | 361 ft | 12 kts | 250° |
| 2026-04-17 05:54 | 50.03985 | 8.54875 | 360 ft | 13 kts | 250° |
| 2026-04-17 05:54 | 50.03952 | 8.54734 | 360 ft | 14 kts | 250° |
| 2026-04-17 05:54 | 50.03930 | 8.54642 | 358 ft | 8 kts | 249° |
| 2026-04-17 05:54 | 50.03910 | 8.54561 | 353 ft | 8 kts | 249° |
| 2026-04-17 05:55 | 50.03891 | 8.54478 | 358 ft | 9 kts | 251° |
| 2026-04-17 05:55 | 50.03868 | 8.54394 | 358 ft | 8 kts | 240° |
| 2026-04-17 05:55 | 50.03823 | 8.54343 | 358 ft | 8 kts | 190° |
| 2026-04-17 05:55 | 50.03766 | 8.54359 | 357 ft | 8 kts | 163° |
| 2026-04-17 05:56 | 50.03711 | 8.54377 | 356 ft | 8 kts | 184° |
| 2026-04-17 05:56 | 50.03666 | 8.54328 | 361 ft | 8 kts | 237° |
| 2026-04-17 05:56 | 50.03640 | 8.54233 | 356 ft | 11 kts | 249° |
| 2026-04-17 05:56 | 50.03611 | 8.54118 | 358 ft | 12 kts | 248° |
| 2026-04-17 05:57 | 50.03582 | 8.53997 | 356 ft | 13 kts | 251° |
| 2026-04-17 05:57 | 50.03549 | 8.53853 | 353 ft | 15 kts | 249° |
| 2026-04-17 05:57 | 50.03511 | 8.53699 | 352 ft | 15 kts | 249° |
| 2026-04-17 05:57 | 50.03476 | 8.53550 | 334 ft | 14 kts | 250° |
| 2026-04-17 05:58 | 50.03445 | 8.53422 | 333 ft | 10 kts | 250° |
| 2026-04-17 05:58 | 50.03417 | 8.53354 | 335 ft | 7 kts | 221° |
| 2026-04-17 05:58 | 50.03370 | 8.53347 | 338 ft | 7 kts | 161° |
| 2026-04-17 05:59 | 50.03360 | 8.53356 | 335 ft | 0 kts | 149° |
| 2026-04-17 06:00 | 50.03317 | 8.53423 | 354 ft | 6 kts | 128° |
| 2026-04-17 06:01 | 50.03295 | 8.53475 | 353 ft | 6 kts | 117° |
| 2026-04-17 06:01 | 50.03288 | 8.53538 | 353 ft | 6 kts | 88° |
| 2026-04-17 06:01 | 50.03298 | 8.53607 | 349 ft | 7 kts | 73° |
| 2026-04-17 06:01 | 50.03319 | 8.53702 | 353 ft | 17 kts | 69° |
| 2026-04-17 06:02 | 50.03401 | 8.54038 | 353 ft | 63 kts | 69° |
| 2026-04-17 06:02 | 50.03664 | 8.55147 | 354 ft | 155 kts | 69° |
| 2026-04-17 06:02 | 50.04115 | 8.57087 | 391 ft | 219 kts | 71° |
| 2026-04-17 06:02 | 50.04639 | 8.59459 | 1206 ft | 231 kts | 72° |
| 2026-04-17 06:03 | 50.05089 | 8.61628 | 2345 ft | 223 kts | 73° |
| 2026-04-17 06:03 | 50.05556 | 8.63949 | 3291 ft | 220 kts | 73° |
| 2026-04-17 06:03 | 50.06064 | 8.66317 | 3861 ft | 247 kts | 72° |
| 2026-04-17 06:03 | 50.06368 | 8.67688 | 4358 ft | 253 kts | 71° |
| 2026-04-17 06:04 | 50.06798 | 8.69588 | 5360 ft | 247 kts | 71° |
| 2026-04-17 06:04 | 50.07329 | 8.71907 | 6769 ft | 222 kts | 71° |